sensor_id;sensor_type;location;lat;lon;timestamp;P1;durP1;ratioP1;P2;durP2;ratioP2
3698;SDS011;1865;50.918;7.092;2023-05-02T00:01:35;11.53;;;7.20;;
3698;SDS011;1865;50.918;7.092;2023-05-02T00:04:02;20.97;;;7.93;;
3698;SDS011;1865;50.918;7.092;2023-05-02T00:06:29;12.47;;;7.80;;
3698;SDS011;1865;50.918;7.092;2023-05-02T00:08:57;13.20;;;7.10;;
3698;SDS011;1865;50.918;7.092;2023-05-02T00:11:23;15.70;;;7.20;;
3698;SDS011;1865;50.918;7.092;2023-05-02T00:13:49;11.37;;;7.70;;
3698;SDS011;1865;50.918;7.092;2023-05-02T00:16:14;14.03;;;8.67;;
3698;SDS011;1865;50.918;7.092;2023-05-02T00:18:40;12.33;;;8.63;;
3698;SDS011;1865;50.918;7.092;2023-05-02T00:21:05;15.53;;;9.17;;
3698;SDS011;1865;50.918;7.092;2023-05-02T00:23:32;13.30;;;8.80;;
3698;SDS011;1865;50.918;7.092;2023-05-02T00:25:57;15.00;;;9.87;;
3698;SDS011;1865;50.918;7.092;2023-05-02T00:28:23;14.87;;;10.10;;
3698;SDS011;1865;50.918;7.092;2023-05-02T00:30:50;13.37;;;8.97;;
3698;SDS011;1865;50.918;7.092;2023-05-02T00:33:15;14.50;;;10.40;;
3698;SDS011;1865;50.918;7.092;2023-05-02T00:35:41;16.70;;;10.13;;
3698;SDS011;1865;50.918;7.092;2023-05-02T00:38:06;18.87;;;10.83;;
3698;SDS011;1865;50.918;7.092;2023-05-02T00:40:45;17.07;;;9.90;;
3698;SDS011;1865;50.918;7.092;2023-05-02T00:43:12;17.00;;;10.63;;
3698;SDS011;1865;50.918;7.092;2023-05-02T00:45:38;15.03;;;9.83;;
3698;SDS011;1865;50.918;7.092;2023-05-02T00:48:06;18.27;;;9.73;;
3698;SDS011;1865;50.918;7.092;2023-05-02T00:50:33;19.10;;;10.40;;
3698;SDS011;1865;50.918;7.092;2023-05-02T00:53:02;20.90;;;11.87;;
3698;SDS011;1865;50.918;7.092;2023-05-02T00:55:29;20.77;;;11.50;;
3698;SDS011;1865;50.918;7.092;2023-05-02T00:57:56;16.30;;;10.73;;
3698;SDS011;1865;50.918;7.092;2023-05-02T01:00:24;15.80;;;10.80;;
3698;SDS011;1865;50.918;7.092;2023-05-02T01:02:59;14.97;;;10.70;;
3698;SDS011;1865;50.918;7.092;2023-05-02T01:08:46;16.00;;;11.00;;
3698;SDS011;1865;50.918;7.092;2023-05-02T01:11:27;19.63;;;13.90;;
3698;SDS011;1865;50.918;7.092;2023-05-02T01:14:03;24.30;;;16.60;;
3698;SDS011;1865;50.918;7.092;2023-05-02T01:16:32;33.40;;;21.00;;
3698;SDS011;1865;50.918;7.092;2023-05-02T01:19:04;35.50;;;22.20;;
3698;SDS011;1865;50.918;7.092;2023-05-02T01:21:33;34.40;;;22.57;;
3698;SDS011;1865;50.918;7.092;2023-05-02T01:24:09;42.83;;;25.47;;
3698;SDS011;1865;50.918;7.092;2023-05-02T01:29:16;38.47;;;24.33;;
3698;SDS011;1865;50.918;7.092;2023-05-02T01:31:45;44.03;;;27.40;;
3698;SDS011;1865;50.918;7.092;2023-05-02T01:34:13;40.70;;;27.70;;
3698;SDS011;1865;50.918;7.092;2023-05-02T01:36:42;42.20;;;26.70;;
3698;SDS011;1865;50.918;7.092;2023-05-02T01:39:09;50.67;;;30.53;;
3698;SDS011;1865;50.918;7.092;2023-05-02T01:41:37;49.20;;;30.30;;
3698;SDS011;1865;50.918;7.092;2023-05-02T01:44:04;55.03;;;31.90;;
3698;SDS011;1865;50.918;7.092;2023-05-02T01:46:32;56.80;;;32.70;;
3698;SDS011;1865;50.918;7.092;2023-05-02T01:49:01;53.30;;;31.70;;
3698;SDS011;1865;50.918;7.092;2023-05-02T01:51:29;55.67;;;32.90;;
3698;SDS011;1865;50.918;7.092;2023-05-02T01:54:06;50.07;;;30.03;;
3698;SDS011;1865;50.918;7.092;2023-05-02T01:56:33;50.47;;;31.80;;
3698;SDS011;1865;50.918;7.092;2023-05-02T01:59:02;57.27;;;30.97;;
3698;SDS011;1865;50.918;7.092;2023-05-02T02:01:40;51.03;;;30.90;;
3698;SDS011;1865;50.918;7.092;2023-05-02T02:04:08;55.93;;;33.10;;
3698;SDS011;1865;50.918;7.092;2023-05-02T02:06:36;59.93;;;32.27;;
3698;SDS011;1865;50.918;7.092;2023-05-02T02:09:03;53.23;;;32.10;;
3698;SDS011;1865;50.918;7.092;2023-05-02T02:11:33;56.83;;;33.17;;
3698;SDS011;1865;50.918;7.092;2023-05-02T02:14:05;55.67;;;32.30;;
3698;SDS011;1865;50.918;7.092;2023-05-02T02:16:36;63.27;;;34.97;;
3698;SDS011;1865;50.918;7.092;2023-05-02T02:19:06;61.90;;;34.03;;
3698;SDS011;1865;50.918;7.092;2023-05-02T02:21:34;61.70;;;33.70;;
3698;SDS011;1865;50.918;7.092;2023-05-02T02:24:02;62.90;;;36.27;;
3698;SDS011;1865;50.918;7.092;2023-05-02T02:26:30;61.80;;;34.13;;
3698;SDS011;1865;50.918;7.092;2023-05-02T02:28:55;58.10;;;33.20;;
3698;SDS011;1865;50.918;7.092;2023-05-02T02:31:21;61.13;;;35.97;;
3698;SDS011;1865;50.918;7.092;2023-05-02T02:33:49;66.43;;;37.60;;
3698;SDS011;1865;50.918;7.092;2023-05-02T02:36:20;66.77;;;34.33;;
3698;SDS011;1865;50.918;7.092;2023-05-02T02:38:56;63.23;;;35.53;;
3698;SDS011;1865;50.918;7.092;2023-05-02T02:41:54;63.30;;;35.53;;
3698;SDS011;1865;50.918;7.092;2023-05-02T02:47:10;60.23;;;34.93;;
3698;SDS011;1865;50.918;7.092;2023-05-02T02:50:03;66.97;;;33.37;;
3698;SDS011;1865;50.918;7.092;2023-05-02T02:53:08;73.63;;;39.00;;
3698;SDS011;1865;50.918;7.092;2023-05-02T02:55:42;70.70;;;36.80;;
3698;SDS011;1865;50.918;7.092;2023-05-02T03:01:02;60.80;;;35.27;;
3698;SDS011;1865;50.918;7.092;2023-05-02T03:03:30;60.30;;;31.57;;
3698;SDS011;1865;50.918;7.092;2023-05-02T03:05:57;60.33;;;33.47;;
3698;SDS011;1865;50.918;7.092;2023-05-02T03:08:23;62.10;;;32.83;;
3698;SDS011;1865;50.918;7.092;2023-05-02T03:10:49;58.47;;;32.00;;
3698;SDS011;1865;50.918;7.092;2023-05-02T03:13:15;60.77;;;32.70;;
3698;SDS011;1865;50.918;7.092;2023-05-02T03:18:15;56.17;;;31.10;;
3698;SDS011;1865;50.918;7.092;2023-05-02T03:20:41;52.90;;;29.80;;
3698;SDS011;1865;50.918;7.092;2023-05-02T03:23:07;53.93;;;31.13;;
3698;SDS011;1865;50.918;7.092;2023-05-02T03:25:32;54.90;;;29.80;;
3698;SDS011;1865;50.918;7.092;2023-05-02T03:27:58;59.83;;;31.60;;
3698;SDS011;1865;50.918;7.092;2023-05-02T03:30:24;55.67;;;28.87;;
3698;SDS011;1865;50.918;7.092;2023-05-02T03:32:49;53.03;;;27.90;;
3698;SDS011;1865;50.918;7.092;2023-05-02T03:35:15;56.87;;;29.33;;
3698;SDS011;1865;50.918;7.092;2023-05-02T03:37:41;55.70;;;29.00;;
3698;SDS011;1865;50.918;7.092;2023-05-02T03:40:07;54.53;;;30.20;;
3698;SDS011;1865;50.918;7.092;2023-05-02T03:42:35;54.57;;;29.60;;
3698;SDS011;1865;50.918;7.092;2023-05-02T03:45:04;54.53;;;29.90;;
3698;SDS011;1865;50.918;7.092;2023-05-02T03:47:30;52.13;;;28.20;;
3698;SDS011;1865;50.918;7.092;2023-05-02T03:49:56;56.83;;;29.77;;
3698;SDS011;1865;50.918;7.092;2023-05-02T03:52:23;57.27;;;29.63;;
3698;SDS011;1865;50.918;7.092;2023-05-02T03:54:49;55.40;;;28.90;;
3698;SDS011;1865;50.918;7.092;2023-05-02T03:57:14;60.73;;;29.63;;
3698;SDS011;1865;50.918;7.092;2023-05-02T03:59:40;55.03;;;28.93;;
3698;SDS011;1865;50.918;7.092;2023-05-02T04:02:06;53.63;;;28.60;;
3698;SDS011;1865;50.918;7.092;2023-05-02T04:04:32;52.00;;;27.90;;
3698;SDS011;1865;50.918;7.092;2023-05-02T04:06:58;54.10;;;28.60;;
3698;SDS011;1865;50.918;7.092;2023-05-02T04:09:24;51.67;;;27.93;;
3698;SDS011;1865;50.918;7.092;2023-05-02T04:11:50;49.17;;;27.57;;
3698;SDS011;1865;50.918;7.092;2023-05-02T04:14:16;50.70;;;28.60;;
3698;SDS011;1865;50.918;7.092;2023-05-02T04:16:46;51.43;;;27.30;;
3698;SDS011;1865;50.918;7.092;2023-05-02T04:19:18;44.63;;;24.40;;
3698;SDS011;1865;50.918;7.092;2023-05-02T04:21:44;52.60;;;28.23;;
3698;SDS011;1865;50.918;7.092;2023-05-02T04:24:09;57.40;;;30.47;;
3698;SDS011;1865;50.918;7.092;2023-05-02T04:26:35;54.57;;;28.13;;
3698;SDS011;1865;50.918;7.092;2023-05-02T04:29:01;50.97;;;27.40;;
3698;SDS011;1865;50.918;7.092;2023-05-02T04:31:28;51.53;;;27.27;;
3698;SDS011;1865;50.918;7.092;2023-05-02T04:33:55;53.50;;;28.57;;
3698;SDS011;1865;50.918;7.092;2023-05-02T04:36:20;51.83;;;25.80;;
3698;SDS011;1865;50.918;7.092;2023-05-02T04:38:46;46.70;;;26.20;;
3698;SDS011;1865;50.918;7.092;2023-05-02T04:41:12;54.00;;;27.57;;
3698;SDS011;1865;50.918;7.092;2023-05-02T04:43:38;54.63;;;29.90;;
3698;SDS011;1865;50.918;7.092;2023-05-02T04:46:04;52.50;;;28.43;;
3698;SDS011;1865;50.918;7.092;2023-05-02T04:48:29;62.60;;;29.67;;
3698;SDS011;1865;50.918;7.092;2023-05-02T04:50:55;56.33;;;29.27;;
3698;SDS011;1865;50.918;7.092;2023-05-02T04:53:21;58.30;;;28.97;;
3698;SDS011;1865;50.918;7.092;2023-05-02T04:55:47;56.63;;;30.50;;
3698;SDS011;1865;50.918;7.092;2023-05-02T04:58:13;60.37;;;29.53;;
3698;SDS011;1865;50.918;7.092;2023-05-02T05:00:38;59.83;;;30.00;;
3698;SDS011;1865;50.918;7.092;2023-05-02T05:03:04;57.63;;;30.63;;
3698;SDS011;1865;50.918;7.092;2023-05-02T05:05:32;58.70;;;29.20;;
3698;SDS011;1865;50.918;7.092;2023-05-02T05:07:58;56.20;;;30.97;;
3698;SDS011;1865;50.918;7.092;2023-05-02T05:10:23;54.37;;;26.97;;
3698;SDS011;1865;50.918;7.092;2023-05-02T05:12:49;59.70;;;27.53;;
3698;SDS011;1865;50.918;7.092;2023-05-02T05:15:15;58.70;;;28.70;;
3698;SDS011;1865;50.918;7.092;2023-05-02T05:17:40;55.90;;;27.23;;
3698;SDS011;1865;50.918;7.092;2023-05-02T05:20:06;52.97;;;25.77;;
3698;SDS011;1865;50.918;7.092;2023-05-02T05:22:37;44.80;;;24.83;;
3698;SDS011;1865;50.918;7.092;2023-05-02T05:25:06;44.23;;;24.20;;
3698;SDS011;1865;50.918;7.092;2023-05-02T05:27:32;47.77;;;25.47;;
3698;SDS011;1865;50.918;7.092;2023-05-02T05:29:58;47.00;;;23.67;;
3698;SDS011;1865;50.918;7.092;2023-05-02T05:32:24;46.10;;;23.90;;
3698;SDS011;1865;50.918;7.092;2023-05-02T05:34:53;46.50;;;25.40;;
3698;SDS011;1865;50.918;7.092;2023-05-02T05:37:19;50.03;;;24.40;;
3698;SDS011;1865;50.918;7.092;2023-05-02T05:39:45;41.53;;;22.03;;
3698;SDS011;1865;50.918;7.092;2023-05-02T05:42:11;49.63;;;23.50;;
3698;SDS011;1865;50.918;7.092;2023-05-02T05:44:37;50.20;;;24.70;;
3698;SDS011;1865;50.918;7.092;2023-05-02T05:47:03;50.23;;;23.90;;
3698;SDS011;1865;50.918;7.092;2023-05-02T05:49:29;42.53;;;23.87;;
3698;SDS011;1865;50.918;7.092;2023-05-02T05:51:54;39.80;;;21.77;;
3698;SDS011;1865;50.918;7.092;2023-05-02T05:54:20;44.40;;;22.93;;
3698;SDS011;1865;50.918;7.092;2023-05-02T05:56:45;46.70;;;22.77;;
3698;SDS011;1865;50.918;7.092;2023-05-02T05:59:11;46.30;;;24.00;;
3698;SDS011;1865;50.918;7.092;2023-05-02T06:01:37;49.37;;;23.20;;
3698;SDS011;1865;50.918;7.092;2023-05-02T06:04:03;42.73;;;21.77;;
3698;SDS011;1865;50.918;7.092;2023-05-02T06:06:29;41.73;;;21.40;;
3698;SDS011;1865;50.918;7.092;2023-05-02T06:08:56;45.10;;;23.80;;
3698;SDS011;1865;50.918;7.092;2023-05-02T06:11:21;42.03;;;21.77;;
3698;SDS011;1865;50.918;7.092;2023-05-02T06:13:48;42.23;;;21.80;;
3698;SDS011;1865;50.918;7.092;2023-05-02T06:16:17;41.63;;;20.57;;
3698;SDS011;1865;50.918;7.092;2023-05-02T06:18:43;44.67;;;22.00;;
3698;SDS011;1865;50.918;7.092;2023-05-02T06:21:09;51.03;;;23.00;;
3698;SDS011;1865;50.918;7.092;2023-05-02T06:23:35;42.33;;;21.77;;
3698;SDS011;1865;50.918;7.092;2023-05-02T06:26:01;48.30;;;22.23;;
3698;SDS011;1865;50.918;7.092;2023-05-02T06:28:27;39.03;;;20.70;;
3698;SDS011;1865;50.918;7.092;2023-05-02T06:30:57;40.40;;;19.30;;
3698;SDS011;1865;50.918;7.092;2023-05-02T06:33:25;45.60;;;21.90;;
3698;SDS011;1865;50.918;7.092;2023-05-02T06:35:51;38.27;;;19.70;;
3698;SDS011;1865;50.918;7.092;2023-05-02T06:38:19;41.67;;;20.40;;
3698;SDS011;1865;50.918;7.092;2023-05-02T06:40:46;38.37;;;18.97;;
3698;SDS011;1865;50.918;7.092;2023-05-02T06:43:12;36.13;;;19.30;;
3698;SDS011;1865;50.918;7.092;2023-05-02T06:45:38;40.80;;;18.77;;
3698;SDS011;1865;50.918;7.092;2023-05-02T06:48:04;35.23;;;18.80;;
3698;SDS011;1865;50.918;7.092;2023-05-02T06:50:30;38.53;;;19.13;;
3698;SDS011;1865;50.918;7.092;2023-05-02T06:52:55;37.60;;;18.50;;
3698;SDS011;1865;50.918;7.092;2023-05-02T06:55:21;35.37;;;18.90;;
3698;SDS011;1865;50.918;7.092;2023-05-02T06:57:49;33.87;;;17.43;;
3698;SDS011;1865;50.918;7.092;2023-05-02T07:00:16;34.30;;;17.77;;
3698;SDS011;1865;50.918;7.092;2023-05-02T07:02:46;35.10;;;19.67;;
3698;SDS011;1865;50.918;7.092;2023-05-02T07:05:13;34.60;;;18.90;;
3698;SDS011;1865;50.918;7.092;2023-05-02T07:07:43;37.60;;;20.00;;
3698;SDS011;1865;50.918;7.092;2023-05-02T07:10:09;38.97;;;20.23;;
3698;SDS011;1865;50.918;7.092;2023-05-02T07:12:36;39.07;;;20.37;;
3698;SDS011;1865;50.918;7.092;2023-05-02T07:15:04;40.43;;;21.50;;
3698;SDS011;1865;50.918;7.092;2023-05-02T07:17:30;38.07;;;18.40;;
3698;SDS011;1865;50.918;7.092;2023-05-02T07:19:56;40.53;;;21.30;;
3698;SDS011;1865;50.918;7.092;2023-05-02T07:22:22;41.07;;;20.47;;
3698;SDS011;1865;50.918;7.092;2023-05-02T07:24:47;39.60;;;21.20;;
3698;SDS011;1865;50.918;7.092;2023-05-02T07:27:20;47.63;;;24.13;;
3698;SDS011;1865;50.918;7.092;2023-05-02T07:29:46;53.90;;;24.20;;
3698;SDS011;1865;50.918;7.092;2023-05-02T07:32:11;44.10;;;23.87;;
3698;SDS011;1865;50.918;7.092;2023-05-02T07:34:37;39.57;;;21.23;;
3698;SDS011;1865;50.918;7.092;2023-05-02T07:37:02;46.10;;;23.77;;
3698;SDS011;1865;50.918;7.092;2023-05-02T07:39:28;39.60;;;23.10;;
3698;SDS011;1865;50.918;7.092;2023-05-02T07:41:53;42.10;;;21.90;;
3698;SDS011;1865;50.918;7.092;2023-05-02T07:44:20;43.83;;;22.20;;
3698;SDS011;1865;50.918;7.092;2023-05-02T07:46:46;41.53;;;21.10;;
3698;SDS011;1865;50.918;7.092;2023-05-02T07:49:11;33.50;;;16.57;;
3698;SDS011;1865;50.918;7.092;2023-05-02T07:51:37;20.57;;;11.03;;
3698;SDS011;1865;50.918;7.092;2023-05-02T07:54:14;19.30;;;9.90;;
3698;SDS011;1865;50.918;7.092;2023-05-02T07:56:41;15.57;;;9.83;;
3698;SDS011;1865;50.918;7.092;2023-05-02T07:59:07;16.40;;;9.07;;
3698;SDS011;1865;50.918;7.092;2023-05-02T08:01:33;18.77;;;9.70;;
3698;SDS011;1865;50.918;7.092;2023-05-02T08:03:59;17.33;;;8.50;;
3698;SDS011;1865;50.918;7.092;2023-05-02T08:06:24;16.53;;;8.60;;
3698;SDS011;1865;50.918;7.092;2023-05-02T08:08:50;21.23;;;8.17;;
3698;SDS011;1865;50.918;7.092;2023-05-02T08:11:16;19.10;;;7.40;;
3698;SDS011;1865;50.918;7.092;2023-05-02T08:13:41;16.97;;;7.60;;
3698;SDS011;1865;50.918;7.092;2023-05-02T08:16:07;16.13;;;6.80;;
3698;SDS011;1865;50.918;7.092;2023-05-02T08:18:33;17.67;;;7.57;;
3698;SDS011;1865;50.918;7.092;2023-05-02T08:20:58;20.03;;;6.93;;
3698;SDS011;1865;50.918;7.092;2023-05-02T08:23:24;19.83;;;6.90;;
3698;SDS011;1865;50.918;7.092;2023-05-02T08:25:49;14.03;;;6.70;;
3698;SDS011;1865;50.918;7.092;2023-05-02T08:28:15;11.53;;;6.13;;
3698;SDS011;1865;50.918;7.092;2023-05-02T08:30:40;15.67;;;6.17;;
3698;SDS011;1865;50.918;7.092;2023-05-02T08:33:06;14.17;;;6.50;;
3698;SDS011;1865;50.918;7.092;2023-05-02T08:35:31;13.87;;;6.60;;
3698;SDS011;1865;50.918;7.092;2023-05-02T08:37:57;12.73;;;6.40;;
3698;SDS011;1865;50.918;7.092;2023-05-02T08:40:22;12.60;;;6.67;;
3698;SDS011;1865;50.918;7.092;2023-05-02T08:42:48;15.47;;;7.67;;
3698;SDS011;1865;50.918;7.092;2023-05-02T08:45:14;14.00;;;7.03;;
3698;SDS011;1865;50.918;7.092;2023-05-02T08:47:40;14.60;;;7.37;;
3698;SDS011;1865;50.918;7.092;2023-05-02T08:50:09;14.13;;;8.00;;
3698;SDS011;1865;50.918;7.092;2023-05-02T08:52:35;18.23;;;8.90;;
3698;SDS011;1865;50.918;7.092;2023-05-02T08:55:02;15.53;;;7.67;;
3698;SDS011;1865;50.918;7.092;2023-05-02T08:57:30;20.07;;;10.30;;
3698;SDS011;1865;50.918;7.092;2023-05-02T08:59:55;15.30;;;9.33;;
3698;SDS011;1865;50.918;7.092;2023-05-02T09:05:05;15.90;;;10.13;;
3698;SDS011;1865;50.918;7.092;2023-05-02T09:07:41;21.77;;;10.17;;
3698;SDS011;1865;50.918;7.092;2023-05-02T09:10:11;17.07;;;10.10;;
3698;SDS011;1865;50.918;7.092;2023-05-02T09:12:37;19.23;;;10.27;;
3698;SDS011;1865;50.918;7.092;2023-05-02T09:15:10;22.40;;;9.57;;
3698;SDS011;1865;50.918;7.092;2023-05-02T09:17:43;19.50;;;9.37;;
3698;SDS011;1865;50.918;7.092;2023-05-02T09:20:10;21.73;;;10.87;;
3698;SDS011;1865;50.918;7.092;2023-05-02T09:22:49;22.30;;;10.03;;
3698;SDS011;1865;50.918;7.092;2023-05-02T09:25:16;17.77;;;10.80;;
3698;SDS011;1865;50.918;7.092;2023-05-02T09:32:48;14.20;;;7.63;;
3698;SDS011;1865;50.918;7.092;2023-05-02T09:35:20;17.23;;;5.77;;
3698;SDS011;1865;50.918;7.092;2023-05-02T09:37:50;17.33;;;4.70;;
3698;SDS011;1865;50.918;7.092;2023-05-02T09:40:22;15.10;;;3.80;;
3698;SDS011;1865;50.918;7.092;2023-05-02T09:42:49;8.37;;;3.07;;
3698;SDS011;1865;50.918;7.092;2023-05-02T09:45:20;8.30;;;3.50;;
3698;SDS011;1865;50.918;7.092;2023-05-02T09:47:47;10.40;;;3.37;;
3698;SDS011;1865;50.918;7.092;2023-05-02T09:50:32;11.30;;;4.00;;
3698;SDS011;1865;50.918;7.092;2023-05-02T09:53:00;9.03;;;3.70;;
3698;SDS011;1865;50.918;7.092;2023-05-02T09:55:26;10.83;;;3.53;;
3698;SDS011;1865;50.918;7.092;2023-05-02T09:57:52;7.27;;;3.70;;
3698;SDS011;1865;50.918;7.092;2023-05-02T10:00:17;12.50;;;4.40;;
3698;SDS011;1865;50.918;7.092;2023-05-02T10:02:44;9.87;;;3.83;;
3698;SDS011;1865;50.918;7.092;2023-05-02T10:05:14;12.70;;;4.30;;
3698;SDS011;1865;50.918;7.092;2023-05-02T10:07:41;13.57;;;5.37;;
3698;SDS011;1865;50.918;7.092;2023-05-02T10:10:09;18.27;;;6.30;;
3698;SDS011;1865;50.918;7.092;2023-05-02T10:12:40;20.63;;;6.00;;
3698;SDS011;1865;50.918;7.092;2023-05-02T10:15:07;13.83;;;6.07;;
3698;SDS011;1865;50.918;7.092;2023-05-02T10:17:38;16.03;;;7.00;;
3698;SDS011;1865;50.918;7.092;2023-05-02T10:20:09;13.70;;;7.10;;
3698;SDS011;1865;50.918;7.092;2023-05-02T10:22:40;13.40;;;6.70;;
3698;SDS011;1865;50.918;7.092;2023-05-02T10:25:07;11.23;;;6.23;;
3698;SDS011;1865;50.918;7.092;2023-05-02T10:27:33;14.90;;;7.40;;
3698;SDS011;1865;50.918;7.092;2023-05-02T10:29:59;18.13;;;7.60;;
3698;SDS011;1865;50.918;7.092;2023-05-02T10:32:28;14.90;;;7.07;;
3698;SDS011;1865;50.918;7.092;2023-05-02T10:34:56;12.33;;;6.30;;
3698;SDS011;1865;50.918;7.092;2023-05-02T10:37:26;14.83;;;6.93;;
3698;SDS011;1865;50.918;7.092;2023-05-02T10:39:53;14.07;;;7.07;;
3698;SDS011;1865;50.918;7.092;2023-05-02T10:42:19;19.20;;;7.30;;
3698;SDS011;1865;50.918;7.092;2023-05-02T10:44:45;14.67;;;7.30;;
3698;SDS011;1865;50.918;7.092;2023-05-02T10:49:50;16.83;;;7.10;;
3698;SDS011;1865;50.918;7.092;2023-05-02T10:55:20;13.83;;;7.00;;
3698;SDS011;1865;50.918;7.092;2023-05-02T11:00:23;13.37;;;6.90;;
3698;SDS011;1865;50.918;7.092;2023-05-02T11:02:49;13.50;;;7.57;;
3698;SDS011;1865;50.918;7.092;2023-05-02T11:05:15;14.33;;;6.37;;
3698;SDS011;1865;50.918;7.092;2023-05-02T11:07:41;12.80;;;6.07;;
3698;SDS011;1865;50.918;7.092;2023-05-02T11:12:45;9.33;;;4.63;;
3698;SDS011;1865;50.918;7.092;2023-05-02T11:17:59;10.10;;;4.70;;
3698;SDS011;1865;50.918;7.092;2023-05-02T11:20:31;13.40;;;5.60;;
3698;SDS011;1865;50.918;7.092;2023-05-02T11:22:58;12.63;;;5.20;;
3698;SDS011;1865;50.918;7.092;2023-05-02T11:25:50;13.30;;;5.90;;
3698;SDS011;1865;50.918;7.092;2023-05-02T11:31:00;12.70;;;5.77;;
3698;SDS011;1865;50.918;7.092;2023-05-02T11:33:29;14.40;;;5.87;;
3698;SDS011;1865;50.918;7.092;2023-05-02T11:35:55;12.03;;;5.33;;
3698;SDS011;1865;50.918;7.092;2023-05-02T11:38:22;12.90;;;5.17;;
3698;SDS011;1865;50.918;7.092;2023-05-02T11:40:49;11.60;;;4.10;;
3698;SDS011;1865;50.918;7.092;2023-05-02T11:43:17;9.13;;;3.73;;
3698;SDS011;1865;50.918;7.092;2023-05-02T11:45:43;9.77;;;3.77;;
3698;SDS011;1865;50.918;7.092;2023-05-02T11:48:10;12.80;;;3.43;;
3698;SDS011;1865;50.918;7.092;2023-05-02T11:50:43;12.73;;;4.40;;
3698;SDS011;1865;50.918;7.092;2023-05-02T11:53:14;11.00;;;4.33;;
3698;SDS011;1865;50.918;7.092;2023-05-02T11:55:45;13.03;;;4.20;;
3698;SDS011;1865;50.918;7.092;2023-05-02T11:58:13;14.20;;;4.00;;
3698;SDS011;1865;50.918;7.092;2023-05-02T12:00:43;11.20;;;4.33;;
3698;SDS011;1865;50.918;7.092;2023-05-02T12:03:28;13.50;;;3.90;;
3698;SDS011;1865;50.918;7.092;2023-05-02T12:05:56;11.63;;;4.10;;
3698;SDS011;1865;50.918;7.092;2023-05-02T12:08:32;16.27;;;5.10;;
3698;SDS011;1865;50.918;7.092;2023-05-02T12:10:57;12.60;;;4.80;;
3698;SDS011;1865;50.918;7.092;2023-05-02T12:13:23;13.77;;;5.60;;
3698;SDS011;1865;50.918;7.092;2023-05-02T12:15:51;17.67;;;5.23;;
3698;SDS011;1865;50.918;7.092;2023-05-02T12:18:17;16.77;;;5.63;;
3698;SDS011;1865;50.918;7.092;2023-05-02T12:20:47;11.00;;;4.60;;
3698;SDS011;1865;50.918;7.092;2023-05-02T12:23:14;12.60;;;5.00;;
3698;SDS011;1865;50.918;7.092;2023-05-02T12:25:40;12.33;;;5.20;;
3698;SDS011;1865;50.918;7.092;2023-05-02T12:28:07;12.57;;;4.60;;
3698;SDS011;1865;50.918;7.092;2023-05-02T12:30:33;10.70;;;3.87;;
3698;SDS011;1865;50.918;7.092;2023-05-02T12:33:02;12.67;;;4.20;;
3698;SDS011;1865;50.918;7.092;2023-05-02T12:35:28;16.00;;;3.97;;
3698;SDS011;1865;50.918;7.092;2023-05-02T12:38:06;12.30;;;4.00;;
3698;SDS011;1865;50.918;7.092;2023-05-02T12:40:37;14.17;;;4.70;;
3698;SDS011;1865;50.918;7.092;2023-05-02T12:43:04;10.60;;;3.80;;
3698;SDS011;1865;50.918;7.092;2023-05-02T12:45:34;10.93;;;3.53;;
3698;SDS011;1865;50.918;7.092;2023-05-02T12:48:01;10.57;;;3.83;;
3698;SDS011;1865;50.918;7.092;2023-05-02T12:50:34;16.40;;;3.77;;
3698;SDS011;1865;50.918;7.092;2023-05-02T12:53:00;13.67;;;4.10;;
3698;SDS011;1865;50.918;7.092;2023-05-02T12:55:27;9.57;;;3.97;;
3698;SDS011;1865;50.918;7.092;2023-05-02T12:58:03;11.90;;;4.13;;
3698;SDS011;1865;50.918;7.092;2023-05-02T13:00:30;12.97;;;3.90;;
3698;SDS011;1865;50.918;7.092;2023-05-02T13:02:56;11.67;;;3.70;;
3698;SDS011;1865;50.918;7.092;2023-05-02T13:05:22;16.90;;;4.27;;
3698;SDS011;1865;50.918;7.092;2023-05-02T13:07:48;12.50;;;4.07;;
3698;SDS011;1865;50.918;7.092;2023-05-02T13:10:13;16.67;;;4.43;;
3698;SDS011;1865;50.918;7.092;2023-05-02T13:12:41;13.10;;;3.70;;
3698;SDS011;1865;50.918;7.092;2023-05-02T13:15:07;12.60;;;3.70;;
3698;SDS011;1865;50.918;7.092;2023-05-02T13:17:33;11.53;;;4.23;;
3698;SDS011;1865;50.918;7.092;2023-05-02T13:19:59;10.27;;;3.20;;
3698;SDS011;1865;50.918;7.092;2023-05-02T13:22:26;9.20;;;2.50;;
3698;SDS011;1865;50.918;7.092;2023-05-02T13:24:52;10.77;;;3.10;;
3698;SDS011;1865;50.918;7.092;2023-05-02T13:27:17;11.73;;;3.30;;
3698;SDS011;1865;50.918;7.092;2023-05-02T13:29:44;16.13;;;5.30;;
3698;SDS011;1865;50.918;7.092;2023-05-02T13:32:09;15.60;;;3.77;;
3698;SDS011;1865;50.918;7.092;2023-05-02T13:34:35;14.80;;;3.83;;
3698;SDS011;1865;50.918;7.092;2023-05-02T13:37:01;15.30;;;4.80;;
3698;SDS011;1865;50.918;7.092;2023-05-02T13:39:26;16.77;;;4.10;;
3698;SDS011;1865;50.918;7.092;2023-05-02T13:41:52;18.47;;;4.10;;
3698;SDS011;1865;50.918;7.092;2023-05-02T13:44:18;11.90;;;4.90;;
3698;SDS011;1865;50.918;7.092;2023-05-02T13:46:43;16.17;;;5.43;;
3698;SDS011;1865;50.918;7.092;2023-05-02T13:49:09;15.60;;;4.90;;
3698;SDS011;1865;50.918;7.092;2023-05-02T13:51:34;15.20;;;4.53;;
3698;SDS011;1865;50.918;7.092;2023-05-02T13:54:00;13.70;;;5.20;;
3698;SDS011;1865;50.918;7.092;2023-05-02T13:56:26;14.40;;;4.40;;
3698;SDS011;1865;50.918;7.092;2023-05-02T13:58:52;14.77;;;4.90;;
3698;SDS011;1865;50.918;7.092;2023-05-02T14:01:17;14.00;;;4.90;;
3698;SDS011;1865;50.918;7.092;2023-05-02T14:03:43;16.63;;;5.00;;
3698;SDS011;1865;50.918;7.092;2023-05-02T14:06:08;14.53;;;4.93;;
3698;SDS011;1865;50.918;7.092;2023-05-02T14:08:34;14.10;;;4.50;;
3698;SDS011;1865;50.918;7.092;2023-05-02T14:11:00;17.10;;;5.60;;
3698;SDS011;1865;50.918;7.092;2023-05-02T14:13:25;16.90;;;5.60;;
3698;SDS011;1865;50.918;7.092;2023-05-02T14:15:51;15.80;;;5.47;;
3698;SDS011;1865;50.918;7.092;2023-05-02T14:18:17;20.47;;;5.30;;
3698;SDS011;1865;50.918;7.092;2023-05-02T14:20:43;12.57;;;4.27;;
3698;SDS011;1865;50.918;7.092;2023-05-02T14:23:09;14.47;;;5.10;;
3698;SDS011;1865;50.918;7.092;2023-05-02T14:25:34;16.60;;;5.07;;
3698;SDS011;1865;50.918;7.092;2023-05-02T14:28:00;15.30;;;4.63;;
3698;SDS011;1865;50.918;7.092;2023-05-02T14:30:26;20.20;;;5.00;;
3698;SDS011;1865;50.918;7.092;2023-05-02T14:32:52;14.43;;;4.70;;
3698;SDS011;1865;50.918;7.092;2023-05-02T14:35:18;13.03;;;5.70;;
3698;SDS011;1865;50.918;7.092;2023-05-02T14:37:44;14.77;;;4.53;;
3698;SDS011;1865;50.918;7.092;2023-05-02T14:40:11;15.33;;;4.23;;
3698;SDS011;1865;50.918;7.092;2023-05-02T14:42:37;15.87;;;5.07;;
3698;SDS011;1865;50.918;7.092;2023-05-02T14:45:07;17.37;;;5.07;;
3698;SDS011;1865;50.918;7.092;2023-05-02T14:47:33;16.23;;;4.73;;
3698;SDS011;1865;50.918;7.092;2023-05-02T14:49:59;14.47;;;4.70;;
3698;SDS011;1865;50.918;7.092;2023-05-02T14:52:26;16.77;;;4.43;;
3698;SDS011;1865;50.918;7.092;2023-05-02T14:54:51;18.33;;;4.57;;
3698;SDS011;1865;50.918;7.092;2023-05-02T14:57:17;15.10;;;4.33;;
3698;SDS011;1865;50.918;7.092;2023-05-02T14:59:43;15.83;;;4.50;;
3698;SDS011;1865;50.918;7.092;2023-05-02T15:02:08;26.33;;;5.27;;
3698;SDS011;1865;50.918;7.092;2023-05-02T15:04:34;14.63;;;4.40;;
3698;SDS011;1865;50.918;7.092;2023-05-02T15:07:00;20.73;;;4.60;;
3698;SDS011;1865;50.918;7.092;2023-05-02T15:09:26;14.27;;;4.57;;
3698;SDS011;1865;50.918;7.092;2023-05-02T15:11:52;15.17;;;4.70;;
3698;SDS011;1865;50.918;7.092;2023-05-02T15:14:17;12.33;;;4.37;;
3698;SDS011;1865;50.918;7.092;2023-05-02T15:16:43;12.30;;;4.40;;
3698;SDS011;1865;50.918;7.092;2023-05-02T15:19:09;16.17;;;4.23;;
3698;SDS011;1865;50.918;7.092;2023-05-02T15:21:35;13.23;;;4.80;;
3698;SDS011;1865;50.918;7.092;2023-05-02T15:24:00;13.90;;;4.43;;
3698;SDS011;1865;50.918;7.092;2023-05-02T15:26:26;10.80;;;3.43;;
3698;SDS011;1865;50.918;7.092;2023-05-02T15:28:52;12.27;;;4.50;;
3698;SDS011;1865;50.918;7.092;2023-05-02T15:31:18;16.90;;;4.77;;
3698;SDS011;1865;50.918;7.092;2023-05-02T15:33:44;12.33;;;4.50;;
3698;SDS011;1865;50.918;7.092;2023-05-02T15:36:10;16.57;;;5.13;;